sensor_id;sensor_type;location;lat;lon;timestamp;P1;durP1;ratioP1;P2;durP2;ratioP2
66523;SDS011;53350;52.210;5.160;2023-08-30T00:02:12;8.05;;;5.03;;
66523;SDS011;53350;52.210;5.160;2023-08-30T00:04:38;10.10;;;5.38;;
66523;SDS011;53350;52.210;5.160;2023-08-30T00:07:05;8.15;;;5.22;;
66523;SDS011;53350;52.210;5.160;2023-08-30T00:09:31;8.57;;;4.93;;
66523;SDS011;53350;52.210;5.160;2023-08-30T00:11:57;9.70;;;5.18;;
66523;SDS011;53350;52.210;5.160;2023-08-30T00:14:23;8.63;;;5.28;;
66523;SDS011;53350;52.210;5.160;2023-08-30T00:16:52;8.45;;;5.43;;
66523;SDS011;53350;52.210;5.160;2023-08-30T00:19:18;10.13;;;5.47;;
66523;SDS011;53350;52.210;5.160;2023-08-30T00:21:44;9.45;;;5.53;;
66523;SDS011;53350;52.210;5.160;2023-08-30T00:24:10;9.15;;;5.43;;
66523;SDS011;53350;52.210;5.160;2023-08-30T00:26:37;9.02;;;6.45;;
66523;SDS011;53350;52.210;5.160;2023-08-30T00:29:03;9.18;;;5.72;;
66523;SDS011;53350;52.210;5.160;2023-08-30T00:31:29;9.20;;;5.78;;
66523;SDS011;53350;52.210;5.160;2023-08-30T00:33:57;10.73;;;6.35;;
66523;SDS011;53350;52.210;5.160;2023-08-30T00:36:23;13.60;;;6.65;;
66523;SDS011;53350;52.210;5.160;2023-08-30T00:38:49;9.73;;;6.50;;
66523;SDS011;53350;52.210;5.160;2023-08-30T00:41:15;11.75;;;6.55;;
66523;SDS011;53350;52.210;5.160;2023-08-30T00:43:42;10.10;;;6.35;;
66523;SDS011;53350;52.210;5.160;2023-08-30T00:46:08;9.32;;;6.00;;
66523;SDS011;53350;52.210;5.160;2023-08-30T00:48:34;10.68;;;6.20;;
66523;SDS011;53350;52.210;5.160;2023-08-30T00:51:02;10.18;;;6.97;;
66523;SDS011;53350;52.210;5.160;2023-08-30T00:53:28;10.63;;;6.53;;
66523;SDS011;53350;52.210;5.160;2023-08-30T00:55:54;10.45;;;6.63;;
66523;SDS011;53350;52.210;5.160;2023-08-30T00:58:21;10.48;;;6.95;;
66523;SDS011;53350;52.210;5.160;2023-08-30T01:00:47;11.35;;;7.15;;
66523;SDS011;53350;52.210;5.160;2023-08-30T01:03:15;10.13;;;6.80;;
66523;SDS011;53350;52.210;5.160;2023-08-30T01:05:41;16.33;;;6.95;;
66523;SDS011;53350;52.210;5.160;2023-08-30T01:08:09;9.70;;;7.10;;
66523;SDS011;53350;52.210;5.160;2023-08-30T01:10:39;14.73;;;7.30;;
66523;SDS011;53350;52.210;5.160;2023-08-30T01:13:08;9.57;;;6.57;;
66523;SDS011;53350;52.210;5.160;2023-08-30T01:15:35;12.52;;;7.13;;
66523;SDS011;53350;52.210;5.160;2023-08-30T01:18:03;11.48;;;6.90;;
66523;SDS011;53350;52.210;5.160;2023-08-30T01:20:30;11.85;;;7.20;;
66523;SDS011;53350;52.210;5.160;2023-08-30T01:23:03;12.60;;;7.75;;
66523;SDS011;53350;52.210;5.160;2023-08-30T01:25:35;9.85;;;6.95;;
66523;SDS011;53350;52.210;5.160;2023-08-30T01:28:05;10.27;;;7.20;;
66523;SDS011;53350;52.210;5.160;2023-08-30T01:32:58;11.93;;;7.10;;
66523;SDS011;53350;52.210;5.160;2023-08-30T01:35:26;11.60;;;7.33;;
66523;SDS011;53350;52.210;5.160;2023-08-30T01:37:57;12.40;;;7.22;;
66523;SDS011;53350;52.210;5.160;2023-08-30T01:40:24;9.88;;;6.53;;
66523;SDS011;53350;52.210;5.160;2023-08-30T01:42:51;11.52;;;7.13;;
66523;SDS011;53350;52.210;5.160;2023-08-30T01:45:19;9.68;;;6.07;;
66523;SDS011;53350;52.210;5.160;2023-08-30T01:50:12;10.73;;;6.53;;
66523;SDS011;53350;52.210;5.160;2023-08-30T01:52:38;10.05;;;6.63;;
66523;SDS011;53350;52.210;5.160;2023-08-30T01:55:05;10.30;;;6.63;;
66523;SDS011;53350;52.210;5.160;2023-08-30T01:57:32;11.77;;;6.25;;
66523;SDS011;53350;52.210;5.160;2023-08-30T01:59:58;10.35;;;6.90;;
66523;SDS011;53350;52.210;5.160;2023-08-30T02:02:29;11.55;;;6.05;;
66523;SDS011;53350;52.210;5.160;2023-08-30T02:04:55;11.88;;;6.97;;
66523;SDS011;53350;52.210;5.160;2023-08-30T02:07:22;10.43;;;6.72;;
66523;SDS011;53350;52.210;5.160;2023-08-30T02:10:00;10.32;;;6.45;;
66523;SDS011;53350;52.210;5.160;2023-08-30T02:12:28;12.25;;;7.40;;
66523;SDS011;53350;52.210;5.160;2023-08-30T02:14:57;12.02;;;7.40;;
66523;SDS011;53350;52.210;5.160;2023-08-30T02:17:24;11.98;;;6.75;;
66523;SDS011;53350;52.210;5.160;2023-08-30T02:19:52;11.30;;;7.50;;
66523;SDS011;53350;52.210;5.160;2023-08-30T02:22:18;11.13;;;7.10;;
66523;SDS011;53350;52.210;5.160;2023-08-30T02:24:45;12.52;;;7.20;;
66523;SDS011;53350;52.210;5.160;2023-08-30T02:27:11;11.75;;;7.45;;
66523;SDS011;53350;52.210;5.160;2023-08-30T02:29:37;14.07;;;7.82;;
66523;SDS011;53350;52.210;5.160;2023-08-30T02:32:04;12.23;;;6.95;;
66523;SDS011;53350;52.210;5.160;2023-08-30T02:34:31;11.80;;;7.10;;
66523;SDS011;53350;52.210;5.160;2023-08-30T02:36:59;10.75;;;7.13;;
66523;SDS011;53350;52.210;5.160;2023-08-30T02:39:25;11.77;;;7.45;;
66523;SDS011;53350;52.210;5.160;2023-08-30T02:41:51;13.07;;;7.35;;
66523;SDS011;53350;52.210;5.160;2023-08-30T02:44:18;13.63;;;7.97;;
66523;SDS011;53350;52.210;5.160;2023-08-30T02:46:44;11.35;;;7.43;;
66523;SDS011;53350;52.210;5.160;2023-08-30T02:49:10;13.70;;;7.45;;
66523;SDS011;53350;52.210;5.160;2023-08-30T02:51:37;11.13;;;7.38;;
66523;SDS011;53350;52.210;5.160;2023-08-30T02:54:04;12.73;;;7.70;;
66523;SDS011;53350;52.210;5.160;2023-08-30T02:56:31;11.70;;;7.43;;
66523;SDS011;53350;52.210;5.160;2023-08-30T02:58:57;11.65;;;7.28;;
66523;SDS011;53350;52.210;5.160;2023-08-30T03:01:24;12.40;;;7.45;;
66523;SDS011;53350;52.210;5.160;2023-08-30T03:03:50;13.57;;;7.50;;
66523;SDS011;53350;52.210;5.160;2023-08-30T03:06:16;12.02;;;7.90;;
66523;SDS011;53350;52.210;5.160;2023-08-30T03:08:42;13.50;;;7.80;;
66523;SDS011;53350;52.210;5.160;2023-08-30T03:11:11;16.15;;;8.65;;
66523;SDS011;53350;52.210;5.160;2023-08-30T03:13:37;13.73;;;8.57;;
66523;SDS011;53350;52.210;5.160;2023-08-30T03:16:09;12.65;;;8.25;;
66523;SDS011;53350;52.210;5.160;2023-08-30T03:18:36;15.38;;;8.57;;
66523;SDS011;53350;52.210;5.160;2023-08-30T03:21:02;13.30;;;8.15;;
66523;SDS011;53350;52.210;5.160;2023-08-30T03:23:29;16.58;;;7.80;;
66523;SDS011;53350;52.210;5.160;2023-08-30T03:25:56;10.93;;;7.82;;
66523;SDS011;53350;52.210;5.160;2023-08-30T03:28:24;14.85;;;8.55;;
66523;SDS011;53350;52.210;5.160;2023-08-30T03:30:50;12.82;;;9.15;;
66523;SDS011;53350;52.210;5.160;2023-08-30T03:33:16;14.18;;;8.57;;
66523;SDS011;53350;52.210;5.160;2023-08-30T03:35:42;14.35;;;9.00;;
66523;SDS011;53350;52.210;5.160;2023-08-30T03:38:09;11.50;;;8.48;;
66523;SDS011;53350;52.210;5.160;2023-08-30T03:40:35;13.05;;;8.77;;
66523;SDS011;53350;52.210;5.160;2023-08-30T03:43:02;14.70;;;9.02;;
66523;SDS011;53350;52.210;5.160;2023-08-30T03:45:30;13.48;;;8.32;;
66523;SDS011;53350;52.210;5.160;2023-08-30T03:48:00;13.32;;;8.68;;
66523;SDS011;53350;52.210;5.160;2023-08-30T03:50:26;14.90;;;8.80;;
66523;SDS011;53350;52.210;5.160;2023-08-30T03:52:53;15.98;;;8.95;;
66523;SDS011;53350;52.210;5.160;2023-08-30T03:55:19;15.48;;;9.25;;
66523;SDS011;53350;52.210;5.160;2023-08-30T03:57:47;16.35;;;9.05;;
66523;SDS011;53350;52.210;5.160;2023-08-30T04:00:14;15.25;;;9.98;;
66523;SDS011;53350;52.210;5.160;2023-08-30T04:02:42;14.27;;;9.43;;
66523;SDS011;53350;52.210;5.160;2023-08-30T04:05:09;14.07;;;9.63;;
66523;SDS011;53350;52.210;5.160;2023-08-30T04:07:35;14.73;;;10.43;;
66523;SDS011;53350;52.210;5.160;2023-08-30T04:10:01;16.27;;;9.50;;
66523;SDS011;53350;52.210;5.160;2023-08-30T04:12:31;13.15;;;9.13;;
66523;SDS011;53350;52.210;5.160;2023-08-30T04:14:57;16.05;;;10.38;;
66523;SDS011;53350;52.210;5.160;2023-08-30T04:17:23;17.20;;;9.85;;
66523;SDS011;53350;52.210;5.160;2023-08-30T04:19:52;15.10;;;9.93;;
66523;SDS011;53350;52.210;5.160;2023-08-30T04:22:18;18.23;;;12.95;;
66523;SDS011;53350;52.210;5.160;2023-08-30T04:24:45;15.93;;;10.52;;
66523;SDS011;53350;52.210;5.160;2023-08-30T04:27:11;18.83;;;10.65;;
66523;SDS011;53350;52.210;5.160;2023-08-30T04:29:38;17.98;;;11.57;;
66523;SDS011;53350;52.210;5.160;2023-08-30T04:32:04;13.82;;;10.00;;
66523;SDS011;53350;52.210;5.160;2023-08-30T04:34:32;16.67;;;10.30;;
66523;SDS011;53350;52.210;5.160;2023-08-30T04:36:59;15.10;;;10.10;;
66523;SDS011;53350;52.210;5.160;2023-08-30T04:39:25;16.83;;;10.60;;
66523;SDS011;53350;52.210;5.160;2023-08-30T04:41:53;15.90;;;10.32;;
66523;SDS011;53350;52.210;5.160;2023-08-30T04:44:20;19.10;;;10.85;;
66523;SDS011;53350;52.210;5.160;2023-08-30T04:46:49;17.13;;;10.48;;
66523;SDS011;53350;52.210;5.160;2023-08-30T04:49:17;16.08;;;10.85;;
66523;SDS011;53350;52.210;5.160;2023-08-30T04:51:43;15.77;;;10.60;;
66523;SDS011;53350;52.210;5.160;2023-08-30T04:54:10;15.77;;;10.55;;
66523;SDS011;53350;52.210;5.160;2023-08-30T04:56:37;14.85;;;10.63;;
66523;SDS011;53350;52.210;5.160;2023-08-30T04:59:03;15.90;;;11.02;;
66523;SDS011;53350;52.210;5.160;2023-08-30T05:01:29;16.85;;;10.60;;
66523;SDS011;53350;52.210;5.160;2023-08-30T05:03:56;16.30;;;11.02;;
66523;SDS011;53350;52.210;5.160;2023-08-30T05:06:22;14.77;;;10.00;;
66523;SDS011;53350;52.210;5.160;2023-08-30T05:08:48;17.73;;;11.50;;
66523;SDS011;53350;52.210;5.160;2023-08-30T05:11:16;14.57;;;10.15;;
66523;SDS011;53350;52.210;5.160;2023-08-30T05:13:42;15.57;;;10.50;;
66523;SDS011;53350;52.210;5.160;2023-08-30T05:16:08;16.45;;;10.60;;
66523;SDS011;53350;52.210;5.160;2023-08-30T05:18:35;20.45;;;11.10;;
66523;SDS011;53350;52.210;5.160;2023-08-30T05:21:01;16.55;;;10.43;;
66523;SDS011;53350;52.210;5.160;2023-08-30T05:23:31;16.13;;;9.63;;
66523;SDS011;53350;52.210;5.160;2023-08-30T05:25:57;14.85;;;9.88;;
66523;SDS011;53350;52.210;5.160;2023-08-30T05:28:25;18.40;;;10.43;;
66523;SDS011;53350;52.210;5.160;2023-08-30T05:30:51;16.70;;;9.50;;
66523;SDS011;53350;52.210;5.160;2023-08-30T05:33:17;15.88;;;9.95;;
66523;SDS011;53350;52.210;5.160;2023-08-30T05:35:43;15.05;;;9.93;;
66523;SDS011;53350;52.210;5.160;2023-08-30T05:38:09;14.07;;;9.73;;
66523;SDS011;53350;52.210;5.160;2023-08-30T05:40:35;15.85;;;10.23;;
66523;SDS011;53350;52.210;5.160;2023-08-30T05:43:01;18.33;;;10.18;;
66523;SDS011;53350;52.210;5.160;2023-08-30T05:45:29;14.05;;;9.43;;
66523;SDS011;53350;52.210;5.160;2023-08-30T05:47:55;13.43;;;9.57;;
66523;SDS011;53350;52.210;5.160;2023-08-30T05:50:22;15.82;;;10.15;;
66523;SDS011;53350;52.210;5.160;2023-08-30T05:52:49;15.93;;;10.68;;
66523;SDS011;53350;52.210;5.160;2023-08-30T05:55:16;13.45;;;9.75;;
66523;SDS011;53350;52.210;5.160;2023-08-30T05:57:42;14.90;;;10.23;;
66523;SDS011;53350;52.210;5.160;2023-08-30T06:00:09;15.80;;;10.23;;
66523;SDS011;53350;52.210;5.160;2023-08-30T06:02:37;15.40;;;9.32;;
66523;SDS011;53350;52.210;5.160;2023-08-30T06:05:03;16.17;;;10.70;;
66523;SDS011;53350;52.210;5.160;2023-08-30T06:07:30;18.23;;;10.50;;
66523;SDS011;53350;52.210;5.160;2023-08-30T06:09:56;17.13;;;10.77;;
66523;SDS011;53350;52.210;5.160;2023-08-30T06:12:22;16.10;;;10.60;;
66523;SDS011;53350;52.210;5.160;2023-08-30T06:14:50;23.30;;;10.80;;
66523;SDS011;53350;52.210;5.160;2023-08-30T06:17:17;21.60;;;11.13;;
66523;SDS011;53350;52.210;5.160;2023-08-30T06:19:45;17.08;;;11.55;;
66523;SDS011;53350;52.210;5.160;2023-08-30T06:22:11;21.85;;;11.30;;
66523;SDS011;53350;52.210;5.160;2023-08-30T06:24:38;19.25;;;11.90;;
66523;SDS011;53350;52.210;5.160;2023-08-30T06:27:04;19.65;;;11.60;;
66523;SDS011;53350;52.210;5.160;2023-08-30T06:29:31;17.88;;;11.82;;
66523;SDS011;53350;52.210;5.160;2023-08-30T06:31:57;18.23;;;12.05;;
66523;SDS011;53350;52.210;5.160;2023-08-30T06:34:23;20.20;;;13.55;;
66523;SDS011;53350;52.210;5.160;2023-08-30T06:36:51;22.10;;;12.40;;
66523;SDS011;53350;52.210;5.160;2023-08-30T06:39:17;19.10;;;12.97;;
66523;SDS011;53350;52.210;5.160;2023-08-30T06:41:44;21.08;;;12.07;;
66523;SDS011;53350;52.210;5.160;2023-08-30T06:44:10;18.80;;;11.80;;
66523;SDS011;53350;52.210;5.160;2023-08-30T06:46:36;21.67;;;11.80;;
66523;SDS011;53350;52.210;5.160;2023-08-30T06:49:03;19.13;;;12.38;;
66523;SDS011;53350;52.210;5.160;2023-08-30T06:51:29;19.35;;;12.00;;
66523;SDS011;53350;52.210;5.160;2023-08-30T06:53:57;19.08;;;12.27;;
66523;SDS011;53350;52.210;5.160;2023-08-30T06:56:25;19.73;;;11.30;;
66523;SDS011;53350;52.210;5.160;2023-08-30T06:58:51;19.90;;;11.77;;
66523;SDS011;53350;52.210;5.160;2023-08-30T07:01:18;16.20;;;11.80;;
66523;SDS011;53350;52.210;5.160;2023-08-30T07:03:44;18.02;;;12.88;;
66523;SDS011;53350;52.210;5.160;2023-08-30T07:06:10;19.85;;;11.82;;
66523;SDS011;53350;52.210;5.160;2023-08-30T07:08:36;17.85;;;11.10;;
66523;SDS011;53350;52.210;5.160;2023-08-30T07:11:04;21.60;;;11.98;;
66523;SDS011;53350;52.210;5.160;2023-08-30T07:13:30;20.17;;;12.05;;
66523;SDS011;53350;52.210;5.160;2023-08-30T07:15:57;18.90;;;11.65;;
66523;SDS011;53350;52.210;5.160;2023-08-30T07:18:23;20.67;;;11.10;;
66523;SDS011;53350;52.210;5.160;2023-08-30T07:20:49;18.52;;;11.07;;
66523;SDS011;53350;52.210;5.160;2023-08-30T07:23:15;15.88;;;10.32;;
66523;SDS011;53350;52.210;5.160;2023-08-30T07:25:42;15.65;;;10.02;;
66523;SDS011;53350;52.210;5.160;2023-08-30T07:28:10;18.38;;;11.15;;
66523;SDS011;53350;52.210;5.160;2023-08-30T07:30:36;18.33;;;11.90;;
66523;SDS011;53350;52.210;5.160;2023-08-30T07:33:03;15.40;;;11.23;;
66523;SDS011;53350;52.210;5.160;2023-08-30T07:35:29;19.73;;;10.80;;
66523;SDS011;53350;52.210;5.160;2023-08-30T07:37:55;16.27;;;10.73;;
66523;SDS011;53350;52.210;5.160;2023-08-30T07:40:22;16.52;;;10.13;;
66523;SDS011;53350;52.210;5.160;2023-08-30T07:42:51;21.40;;;10.35;;
66523;SDS011;53350;52.210;5.160;2023-08-30T07:45:18;16.92;;;10.75;;
66523;SDS011;53350;52.210;5.160;2023-08-30T07:47:45;17.13;;;10.23;;
66523;SDS011;53350;52.210;5.160;2023-08-30T07:50:11;15.10;;;10.13;;
66523;SDS011;53350;52.210;5.160;2023-08-30T07:52:37;15.93;;;10.07;;
66523;SDS011;53350;52.210;5.160;2023-08-30T07:55:03;16.58;;;9.73;;
66523;SDS011;53350;52.210;5.160;2023-08-30T07:57:30;13.85;;;10.25;;
66523;SDS011;53350;52.210;5.160;2023-08-30T07:59:56;15.38;;;10.07;;
66523;SDS011;53350;52.210;5.160;2023-08-30T08:02:24;14.27;;;10.65;;
66523;SDS011;53350;52.210;5.160;2023-08-30T08:04:50;14.07;;;9.53;;
66523;SDS011;53350;52.210;5.160;2023-08-30T08:07:17;18.00;;;11.27;;
66523;SDS011;53350;52.210;5.160;2023-08-30T08:09:43;14.23;;;9.68;;
66523;SDS011;53350;52.210;5.160;2023-08-30T08:12:09;15.32;;;9.43;;
66523;SDS011;53350;52.210;5.160;2023-08-30T08:14:35;13.32;;;8.63;;
66523;SDS011;53350;52.210;5.160;2023-08-30T08:17:02;13.25;;;7.75;;
66523;SDS011;53350;52.210;5.160;2023-08-30T08:19:29;12.20;;;6.97;;
66523;SDS011;53350;52.210;5.160;2023-08-30T08:21:56;11.83;;;7.23;;
66523;SDS011;53350;52.210;5.160;2023-08-30T08:24:22;10.25;;;6.35;;
66523;SDS011;53350;52.210;5.160;2023-08-30T08:26:48;12.23;;;7.50;;
66523;SDS011;53350;52.210;5.160;2023-08-30T08:29:14;12.57;;;6.82;;
66523;SDS011;53350;52.210;5.160;2023-08-30T08:31:41;10.27;;;6.78;;
66523;SDS011;53350;52.210;5.160;2023-08-30T08:34:07;13.23;;;6.80;;
66523;SDS011;53350;52.210;5.160;2023-08-30T08:36:36;18.83;;;6.22;;
66523;SDS011;53350;52.210;5.160;2023-08-30T08:39:02;9.70;;;6.38;;
66523;SDS011;53350;52.210;5.160;2023-08-30T08:41:30;11.45;;;6.40;;
66523;SDS011;53350;52.210;5.160;2023-08-30T08:43:59;12.55;;;6.78;;
66523;SDS011;53350;52.210;5.160;2023-08-30T08:46:26;12.40;;;6.22;;
66523;SDS011;53350;52.210;5.160;2023-08-30T08:48:55;9.50;;;6.15;;
66523;SDS011;53350;52.210;5.160;2023-08-30T08:51:22;9.68;;;6.90;;
66523;SDS011;53350;52.210;5.160;2023-08-30T08:53:51;11.32;;;6.13;;
66523;SDS011;53350;52.210;5.160;2023-08-30T08:56:17;10.38;;;6.28;;
66523;SDS011;53350;52.210;5.160;2023-08-30T08:58:44;10.23;;;6.30;;
66523;SDS011;53350;52.210;5.160;2023-08-30T09:01:11;11.50;;;5.75;;
66523;SDS011;53350;52.210;5.160;2023-08-30T09:03:37;10.15;;;5.72;;
66523;SDS011;53350;52.210;5.160;2023-08-30T09:06:03;9.10;;;5.90;;
66523;SDS011;53350;52.210;5.160;2023-08-30T09:08:30;9.50;;;6.25;;
66523;SDS011;53350;52.210;5.160;2023-08-30T09:10:57;14.82;;;5.93;;
66523;SDS011;53350;52.210;5.160;2023-08-30T09:13:24;11.05;;;6.80;;
66523;SDS011;53350;52.210;5.160;2023-08-30T09:15:51;10.77;;;5.97;;
66523;SDS011;53350;52.210;5.160;2023-08-30T09:18:17;8.95;;;6.53;;
66523;SDS011;53350;52.210;5.160;2023-08-30T09:20:44;11.68;;;6.25;;
66523;SDS011;53350;52.210;5.160;2023-08-30T09:23:17;9.95;;;6.22;;
66523;SDS011;53350;52.210;5.160;2023-08-30T09:25:43;12.35;;;7.95;;
66523;SDS011;53350;52.210;5.160;2023-08-30T09:28:11;14.02;;;7.35;;
66523;SDS011;53350;52.210;5.160;2023-08-30T09:30:38;9.90;;;7.38;;
66523;SDS011;53350;52.210;5.160;2023-08-30T09:33:05;14.00;;;8.25;;
66523;SDS011;53350;52.210;5.160;2023-08-30T09:35:31;10.30;;;7.13;;
66523;SDS011;53350;52.210;5.160;2023-08-30T09:37:57;9.77;;;6.85;;
66523;SDS011;53350;52.210;5.160;2023-08-30T09:40:23;10.05;;;6.90;;
66523;SDS011;53350;52.210;5.160;2023-08-30T09:42:50;21.77;;;7.38;;
66523;SDS011;53350;52.210;5.160;2023-08-30T09:45:18;14.10;;;7.05;;
66523;SDS011;53350;52.210;5.160;2023-08-30T09:47:46;13.57;;;7.85;;
66523;SDS011;53350;52.210;5.160;2023-08-30T09:50:12;10.68;;;7.28;;
66523;SDS011;53350;52.210;5.160;2023-08-30T09:55:07;10.63;;;8.07;;
66523;SDS011;53350;52.210;5.160;2023-08-30T09:57:34;13.82;;;9.13;;
66523;SDS011;53350;52.210;5.160;2023-08-30T10:00:00;12.60;;;9.40;;
66523;SDS011;53350;52.210;5.160;2023-08-30T10:02:30;14.63;;;8.93;;
66523;SDS011;53350;52.210;5.160;2023-08-30T10:04:57;11.27;;;7.93;;
66523;SDS011;53350;52.210;5.160;2023-08-30T10:07:23;10.95;;;8.07;;
66523;SDS011;53350;52.210;5.160;2023-08-30T10:09:51;13.20;;;8.02;;
66523;SDS011;53350;52.210;5.160;2023-08-30T10:12:18;17.70;;;8.77;;
66523;SDS011;53350;52.210;5.160;2023-08-30T10:14:46;24.25;;;7.32;;
66523;SDS011;53350;52.210;5.160;2023-08-30T10:17:12;18.77;;;6.18;;
66523;SDS011;53350;52.210;5.160;2023-08-30T10:19:41;13.75;;;4.72;;
66523;SDS011;53350;52.210;5.160;2023-08-30T10:22:09;13.68;;;3.92;;
66523;SDS011;53350;52.210;5.160;2023-08-30T10:24:41;9.20;;;4.57;;
66523;SDS011;53350;52.210;5.160;2023-08-30T10:27:08;9.25;;;4.35;;
66523;SDS011;53350;52.210;5.160;2023-08-30T10:29:35;11.18;;;3.60;;
66523;SDS011;53350;52.210;5.160;2023-08-30T10:32:02;17.60;;;3.67;;
66523;SDS011;53350;52.210;5.160;2023-08-30T10:34:31;18.15;;;4.03;;
66523;SDS011;53350;52.210;5.160;2023-08-30T10:36:59;12.02;;;3.67;;
66523;SDS011;53350;52.210;5.160;2023-08-30T10:39:32;18.00;;;3.40;;
66523;SDS011;53350;52.210;5.160;2023-08-30T10:41:58;15.20;;;3.05;;
66523;SDS011;53350;52.210;5.160;2023-08-30T10:44:25;13.55;;;2.45;;
66523;SDS011;53350;52.210;5.160;2023-08-30T10:46:52;17.65;;;2.95;;
66523;SDS011;53350;52.210;5.160;2023-08-30T10:49:18;13.32;;;2.88;;
66523;SDS011;53350;52.210;5.160;2023-08-30T10:51:44;12.98;;;2.72;;
66523;SDS011;53350;52.210;5.160;2023-08-30T10:54:14;21.47;;;3.60;;
66523;SDS011;53350;52.210;5.160;2023-08-30T10:56:47;9.40;;;2.85;;
66523;SDS011;53350;52.210;5.160;2023-08-30T10:59:17;38.42;;;3.83;;
66523;SDS011;53350;52.210;5.160;2023-08-30T11:01:44;18.00;;;2.90;;
66523;SDS011;53350;52.210;5.160;2023-08-30T11:04:11;10.65;;;2.80;;
66523;SDS011;53350;52.210;5.160;2023-08-30T11:06:38;9.90;;;3.22;;
66523;SDS011;53350;52.210;5.160;2023-08-30T11:09:05;8.80;;;2.75;;
66523;SDS011;53350;52.210;5.160;2023-08-30T11:11:33;8.73;;;3.13;;
66523;SDS011;53350;52.210;5.160;2023-08-30T11:14:03;9.77;;;2.67;;
66523;SDS011;53350;52.210;5.160;2023-08-30T11:16:29;10.32;;;3.42;;
66523;SDS011;53350;52.210;5.160;2023-08-30T11:18:55;8.48;;;2.70;;
66523;SDS011;53350;52.210;5.160;2023-08-30T11:21:22;8.65;;;3.13;;
66523;SDS011;53350;52.210;5.160;2023-08-30T11:23:49;10.32;;;2.53;;
66523;SDS011;53350;52.210;5.160;2023-08-30T11:26:15;10.57;;;2.92;;
66523;SDS011;53350;52.210;5.160;2023-08-30T11:28:43;10.02;;;3.28;;
66523;SDS011;53350;52.210;5.160;2023-08-30T11:31:17;14.20;;;3.03;;
66523;SDS011;53350;52.210;5.160;2023-08-30T11:33:49;9.85;;;2.90;;
66523;SDS011;53350;52.210;5.160;2023-08-30T11:36:15;13.52;;;2.78;;
66523;SDS011;53350;52.210;5.160;2023-08-30T11:38:42;10.63;;;3.05;;
66523;SDS011;53350;52.210;5.160;2023-08-30T11:41:08;8.10;;;1.77;;
66523;SDS011;53350;52.210;5.160;2023-08-30T11:43:34;7.88;;;1.90;;
66523;SDS011;53350;52.210;5.160;2023-08-30T11:46:04;11.23;;;2.38;;
66523;SDS011;53350;52.210;5.160;2023-08-30T11:48:30;31.33;;;2.95;;
66523;SDS011;53350;52.210;5.160;2023-08-30T11:50:57;40.05;;;5.05;;
66523;SDS011;53350;52.210;5.160;2023-08-30T11:53:23;35.65;;;4.65;;
66523;SDS011;53350;52.210;5.160;2023-08-30T11:55:49;25.05;;;3.38;;
66523;SDS011;53350;52.210;5.160;2023-08-30T11:58:17;38.80;;;4.00;;
66523;SDS011;53350;52.210;5.160;2023-08-30T12:00:43;15.55;;;2.78;;
66523;SDS011;53350;52.210;5.160;2023-08-30T12:03:14;22.92;;;4.07;;
66523;SDS011;53350;52.210;5.160;2023-08-30T12:05:43;10.13;;;2.20;;
66523;SDS011;53350;52.210;5.160;2023-08-30T12:08:17;29.02;;;3.50;;
66523;SDS011;53350;52.210;5.160;2023-08-30T12:10:43;11.20;;;2.05;;
66523;SDS011;53350;52.210;5.160;2023-08-30T12:13:18;13.68;;;2.10;;
66523;SDS011;53350;52.210;5.160;2023-08-30T12:15:45;18.63;;;2.63;;
66523;SDS011;53350;52.210;5.160;2023-08-30T12:18:11;17.90;;;2.35;;
66523;SDS011;53350;52.210;5.160;2023-08-30T12:20:39;19.70;;;2.40;;
66523;SDS011;53350;52.210;5.160;2023-08-30T12:23:05;24.08;;;3.22;;
66523;SDS011;53350;52.210;5.160;2023-08-30T12:25:31;21.60;;;2.85;;
66523;SDS011;53350;52.210;5.160;2023-08-30T12:27:59;21.67;;;3.13;;
66523;SDS011;53350;52.210;5.160;2023-08-30T12:30:25;30.65;;;3.17;;
66523;SDS011;53350;52.210;5.160;2023-08-30T12:32:59;12.85;;;2.13;;
66523;SDS011;53350;52.210;5.160;2023-08-30T12:35:26;14.30;;;1.88;;
66523;SDS011;53350;52.210;5.160;2023-08-30T12:37:53;11.73;;;2.60;;
66523;SDS011;53350;52.210;5.160;2023-08-30T12:40:20;16.05;;;2.70;;
66523;SDS011;53350;52.210;5.160;2023-08-30T12:42:47;13.25;;;2.42;;
66523;SDS011;53350;52.210;5.160;2023-08-30T12:45:13;22.23;;;4.43;;
66523;SDS011;53350;52.210;5.160;2023-08-30T12:47:39;14.18;;;2.92;;
66523;SDS011;53350;52.210;5.160;2023-08-30T12:50:06;16.38;;;2.53;;
66523;SDS011;53350;52.210;5.160;2023-08-30T12:52:32;23.05;;;2.55;;
66523;SDS011;53350;52.210;5.160;2023-08-30T12:55:00;27.33;;;3.72;;
66523;SDS011;53350;52.210;5.160;2023-08-30T12:57:29;6.78;;;1.70;;
66523;SDS011;53350;52.210;5.160;2023-08-30T12:59:55;9.23;;;1.60;;
66523;SDS011;53350;52.210;5.160;2023-08-30T13:02:21;10.70;;;2.00;;
66523;SDS011;53350;52.210;5.160;2023-08-30T13:04:48;7.07;;;2.15;;
66523;SDS011;53350;52.210;5.160;2023-08-30T13:07:14;9.98;;;1.80;;
66523;SDS011;53350;52.210;5.160;2023-08-30T13:09:40;6.00;;;1.88;;
66523;SDS011;53350;52.210;5.160;2023-08-30T13:12:08;10.13;;;1.92;;
66523;SDS011;53350;52.210;5.160;2023-08-30T13:14:34;6.97;;;1.70;;
66523;SDS011;53350;52.210;5.160;2023-08-30T13:17:01;9.65;;;2.03;;
66523;SDS011;53350;52.210;5.160;2023-08-30T13:19:27;7.57;;;1.65;;
66523;SDS011;53350;52.210;5.160;2023-08-30T13:21:54;4.20;;;1.45;;
66523;SDS011;53350;52.210;5.160;2023-08-30T13:24:20;10.00;;;1.90;;
66523;SDS011;53350;52.210;5.160;2023-08-30T13:26:46;7.20;;;1.60;;
66523;SDS011;53350;52.210;5.160;2023-08-30T13:29:14;8.43;;;1.60;;
66523;SDS011;53350;52.210;5.160;2023-08-30T13:31:41;9.05;;;1.70;;
66523;SDS011;53350;52.210;5.160;2023-08-30T13:34:07;5.47;;;1.52;;
66523;SDS011;53350;52.210;5.160;2023-08-30T13:36:34;8.13;;;1.67;;
66523;SDS011;53350;52.210;5.160;2023-08-30T13:39:01;6.38;;;1.52;;
66523;SDS011;53350;52.210;5.160;2023-08-30T13:41:29;5.78;;;1.92;;
66523;SDS011;53350;52.210;5.160;2023-08-30T13:43:55;8.32;;;1.67;;
66523;SDS011;53350;52.210;5.160;2023-08-30T13:46:22;12.02;;;1.88;;
66523;SDS011;53350;52.210;5.160;2023-08-30T13:48:49;6.43;;;1.60;;
66523;SDS011;53350;52.210;5.160;2023-08-30T13:51:20;6.05;;;1.55;;
66523;SDS011;53350;52.210;5.160;2023-08-30T13:53:47;7.25;;;1.58;;
66523;SDS011;53350;52.210;5.160;2023-08-30T13:56:13;8.85;;;1.95;;
66523;SDS011;53350;52.210;5.160;2023-08-30T13:58:39;7.38;;;1.42;;
66523;SDS011;53350;52.210;5.160;2023-08-30T14:01:05;7.70;;;1.80;;
66523;SDS011;53350;52.210;5.160;2023-08-30T14:03:33;10.30;;;1.83;;
66523;SDS011;53350;52.210;5.160;2023-08-30T14:05:59;7.25;;;1.80;;
66523;SDS011;53350;52.210;5.160;2023-08-30T14:08:25;4.43;;;1.05;;
66523;SDS011;53350;52.210;5.160;2023-08-30T14:10:52;5.40;;;1.45;;
66523;SDS011;53350;52.210;5.160;2023-08-30T14:13:19;5.70;;;1.20;;
66523;SDS011;53350;52.210;5.160;2023-08-30T14:15:45;2.28;;;0.80;;
66523;SDS011;53350;52.210;5.160;2023-08-30T14:18:11;5.65;;;1.20;;
66523;SDS011;53350;52.210;5.160;2023-08-30T14:20:40;8.15;;;1.77;;
66523;SDS011;53350;52.210;5.160;2023-08-30T14:23:06;3.85;;;1.25;;
66523;SDS011;53350;52.210;5.160;2023-08-30T14:25:33;4.13;;;1.88;;
66523;SDS011;53350;52.210;5.160;2023-08-30T14:27:59;5.20;;;1.50;;
66523;SDS011;53350;52.210;5.160;2023-08-30T14:30:25;5.50;;;1.13;;
66523;SDS011;53350;52.210;5.160;2023-08-30T14:32:51;5.35;;;1.33;;
66523;SDS011;53350;52.210;5.160;2023-08-30T14:35:18;8.20;;;1.45;;
66523;SDS011;53350;52.210;5.160;2023-08-30T14:37:47;5.85;;;1.42;;
66523;SDS011;53350;52.210;5.160;2023-08-30T14:40:13;7.55;;;1.50;;